Hub


Voltar

 INFORMAÇÕES METEOROLÓGICAS

METAR FOR EDDT


ADDS - METARS form results

(2324 UTC 17 February 2019)
Data provider http://aviationweather.gov/metar/data/
 
METAR text: EDDT 172320Z 12003KT 090V150 CAVOK 05/01 Q1021
Conditions at: EDDT (BERLIN/TEGEL (FA, DE) observed 2320 UTC 17 February 2019
Temperature: 5.0°C (41°F)
Dewpoint: 1.0°C (34°F) [RH = 75%]
Pressure (altimeter): 30.15 inches Hg (1021.0 mb)
Winds: from the ESE (120 degrees) at 3 MPH (3 knots; 1.5 m/s)
Visibility: 6 or more miles (10+ km)
Ceiling: ceiling and visibility are OK
Clouds: unknown
Weather: no significant weather observed at this time

METAR text: EDDT 172250Z 12003KT CAVOK 06/01 Q1021
Conditions at: EDDT (BERLIN/TEGEL (FA, DE) observed 2250 UTC 17 February 2019
Temperature: 6.0°C (43°F)
Dewpoint: 1.0°C (34°F) [RH = 70%]
Pressure (altimeter): 30.15 inches Hg (1021.0 mb)
Winds: from the ESE (120 degrees) at 3 MPH (3 knots; 1.5 m/s)
Visibility: 6 or more miles (10+ km)
Ceiling: ceiling and visibility are OK
Clouds: unknown
Weather: no significant weather observed at this time

Forecast for: EDDT (BERLIN/TEGEL (FA, DE)
Text: TAF EDDT 171700Z 1718/1818 14004KT CAVOK
Forecast period: 1800 UTC 17 February 2019 to 0200 UTC 18 February 2019
Forecast type: FROM: standard forecast or significant change
Winds: from the SE (140 degrees) at 5 MPH (4 knots; 2.1 m/s)
Visibility: 6 or more miles 10+ km)
Ceiling: unknown
Clouds: missing
Weather: NSW  (no significant weather)
Text: BECMG 1802/1805 21005KT
Forecast period: 0200 to 1800 UTC 18 February 2019
Forecast type: BECOMING: Conditions expected to become as follows by 0500 UTC 18 February 2019
Winds: from the SSW (210 degrees) at 6 MPH (5 knots; 2.6 m/s)
Visibility: 6 or more miles 10+ km)
Ceiling: unknown
Clouds: missing
Weather: NSW  (no significant weather)


 MAPA DO AEROPORTO


 INFORMAÇÕES DA PISTA

Pista 08L Tamanho da pista 9918 ft Largura da pista 151 ft
Elevação da pista 110 ft Ranhura da pista 0 ft Proa da pista 81
Pista 26R Tamanho da pista 9918 ft Largura da pista 151 ft
Elevação da pista 117 ft Ranhura da pista 0 ft Proa da pista 261
Pista 08R Tamanho da pista 7966 ft Largura da pista 151 ft
Elevação da pista 109 ft Ranhura da pista 341 ft Proa da pista 81
Pista 26L Tamanho da pista 7966 ft Largura da pista 151 ft
Elevação da pista 122 ft Ranhura da pista 722 ft Proa da pista 261

 FREQUÊNCIAS DO AEROPORTO

Tipo AFIS Nome BERLIN INF Frequência 132.65 MHZ
Tipo APP Nome BERLIN ARR Frequência 119.625 MHZ
Tipo ATIS Nome ATIS Frequência 125.9 MHZ
Tipo DEP Nome BERLIN DEP Frequência 120.625 MHZ
Tipo DIR Nome BERLIN DIR Frequência 136.1 MHZ
Tipo GND Nome GND Frequência 121.925 MHZ
Tipo RMP Nome BERLIN MIL Frequência 136 MHZ
Tipo TWR Nome TWR Frequência 124.525 MHZ

 AUXÍLIOS DE NAVEGAÇÃO PRÓXIMOS AO AEROPORTO

Tipo NDB Nome Tegel East Frequência 321 KHZ
Tipo NDB Nome Tegel West Frequência 392 KHZ
Tipo VOR-DME Nome Tegel Frequência 112300 KHZ